createdAt,value
2019-05-26T00:00:51.653Z,10.00
2019-05-26T00:03:21.479Z,9.90
2019-05-26T00:05:51.359Z,9.90
2019-05-26T00:08:21.271Z,10.00
2019-05-26T00:10:51.191Z,10.00
2019-05-26T00:13:21.087Z,9.90
2019-05-26T00:15:50.973Z,9.90
2019-05-26T00:18:20.888Z,9.90
2019-05-26T00:20:50.759Z,9.80
2019-05-26T00:23:20.690Z,9.90
2019-05-26T00:25:50.587Z,9.80
2019-05-26T00:31:15.199Z,10.00
2019-05-26T00:33:45.593Z,10.00
2019-05-26T00:36:15.599Z,10.00
2019-05-26T00:38:45.829Z,9.90
2019-05-26T00:41:16.124Z,10.00
2019-05-26T00:43:46.595Z,9.90
2019-05-26T00:46:17.075Z,9.90
2019-05-26T00:48:48.408Z,9.90
2019-05-26T00:51:19.242Z,9.90
2019-05-26T00:53:50.498Z,10.00
2019-05-26T00:56:21.096Z,10.00
2019-05-26T00:58:51.867Z,9.90
2019-05-26T01:01:22.593Z,9.90
2019-05-26T01:03:53.297Z,9.90
2019-05-26T01:06:23.480Z,9.90
2019-05-26T01:08:54.126Z,10.00
2019-05-26T01:11:24.545Z,10.00
2019-05-26T01:13:55.541Z,10.00
2019-05-26T01:16:26.425Z,9.90
2019-05-26T01:18:57.176Z,10.00
2019-05-26T01:21:27.552Z,10.00
2019-05-26T01:23:58.110Z,10.00
2019-05-26T01:26:28.667Z,10.00
2019-05-26T01:28:59.123Z,10.00
2019-05-26T01:31:29.886Z,9.90
2019-05-26T01:34:00.470Z,10.00
2019-05-26T01:36:31.681Z,10.00
2019-05-26T01:39:02.135Z,10.10
2019-05-26T01:41:32.962Z,10.10
2019-05-26T01:44:03.464Z,10.10
2019-05-26T01:46:33.857Z,10.10
2019-05-26T01:49:04.249Z,10.20
2019-05-26T01:51:34.361Z,10.10
2019-05-26T01:54:04.660Z,10.10
2019-05-26T01:56:35.234Z,10.00
2019-05-26T01:59:05.425Z,10.00
2019-05-26T02:01:35.850Z,9.90
2019-05-26T02:04:06.408Z,10.10
2019-05-26T02:06:36.730Z,10.10
2019-05-26T02:09:08.653Z,10.00
2019-05-26T02:11:38.965Z,10.00
2019-05-26T02:14:09.894Z,10.00
2019-05-26T02:16:40.209Z,10.00
2019-05-26T02:19:10.859Z,10.00
2019-05-26T02:21:41.488Z,10.10
2019-05-26T02:24:12.078Z,10.10
2019-05-26T02:26:43.040Z,10.20
2019-05-26T02:29:13.072Z,10.30
2019-05-26T02:31:43.949Z,10.20
2019-05-26T02:34:14.815Z,10.20
2019-05-26T02:36:45.233Z,10.20
2019-05-26T02:39:15.456Z,10.20
2019-05-26T02:41:45.999Z,10.40
2019-05-26T02:44:16.439Z,10.30
2019-05-26T02:46:47.463Z,10.30
2019-05-26T02:49:17.793Z,10.40
2019-05-26T02:51:48.523Z,10.40
2019-05-26T02:54:19.206Z,10.30
2019-05-26T02:56:50.154Z,10.30
2019-05-26T02:59:20.806Z,10.30
2019-05-26T03:02:03.224Z,10.20
2019-05-26T03:04:23.996Z,10.20
2019-05-26T03:06:55.203Z,10.40
2019-05-26T03:09:27.024Z,10.40
2019-05-26T03:11:58.851Z,10.40
2019-05-26T03:14:32.343Z,10.40
2019-05-26T03:17:03.258Z,10.40
2019-05-26T03:19:35.793Z,10.40
2019-05-26T03:22:06.350Z,10.40
2019-05-26T03:24:39.946Z,10.30
2019-05-26T03:27:10.171Z,10.40
2019-05-26T03:29:40.632Z,10.40
2019-05-26T03:32:11.259Z,10.40
2019-05-26T03:34:41.978Z,10.40
2019-05-26T03:37:12.074Z,10.50
2019-05-26T03:39:45.944Z,10.50
2019-05-26T03:42:14.741Z,10.50
2019-05-26T03:44:45.507Z,10.40
2019-05-26T03:47:17.787Z,10.40
2019-05-26T03:49:48.245Z,10.50
2019-05-26T03:52:18.598Z,10.60
2019-05-26T03:54:49.254Z,10.60
2019-05-26T03:57:20.217Z,10.60
2019-05-26T03:59:51.431Z,10.70
2019-05-26T04:02:22.567Z,10.60
2019-05-26T04:04:53.202Z,10.60
2019-05-26T04:07:23.940Z,10.60
2019-05-26T04:10:04.760Z,10.70
2019-05-26T04:12:28.935Z,10.60
2019-05-26T04:14:59.329Z,10.60
2019-05-26T04:17:29.676Z,10.70
2019-05-26T04:20:00.313Z,10.80
2019-05-26T04:22:30.851Z,10.80
2019-05-26T04:25:01.356Z,10.70
2019-05-26T04:27:31.695Z,10.70
2019-05-26T04:30:02.226Z,10.70
2019-05-26T04:32:32.720Z,10.80
2019-05-26T04:35:03.454Z,10.80
2019-05-26T04:37:34.254Z,10.90
2019-05-26T04:40:24.825Z,11.00
2019-05-26T04:42:39.862Z,11.00
2019-05-26T04:45:10.539Z,11.00
2019-05-26T04:47:40.838Z,11.00
2019-05-26T04:50:11.471Z,11.10
2019-05-26T04:52:41.693Z,11.10
2019-05-26T04:55:12.250Z,11.10
2019-05-26T04:57:42.299Z,11.20
2019-05-26T05:00:13.101Z,11.20
2019-05-26T05:02:43.283Z,11.20
2019-05-26T05:05:19.967Z,11.20
2019-05-26T05:07:50.308Z,11.20
2019-05-26T05:10:20.590Z,11.30
2019-05-26T05:12:51.012Z,11.30
2019-05-26T05:15:23.129Z,11.40
2019-05-26T05:17:53.785Z,11.50
2019-05-26T05:20:24.222Z,11.60
2019-05-26T05:22:54.830Z,11.70
2019-05-26T05:25:25.335Z,11.80
2019-05-26T05:27:56.023Z,11.70
2019-05-26T05:30:27.319Z,11.80
2019-05-26T05:32:58.044Z,11.80
2019-05-26T05:35:28.273Z,12.00
2019-05-26T05:37:59.229Z,12.10
2019-05-26T05:40:29.654Z,12.00
2019-05-26T05:43:00.229Z,12.10
2019-05-26T05:45:31.121Z,12.10
2019-05-26T05:48:01.698Z,12.20
2019-05-26T05:50:32.450Z,12.20
2019-05-26T05:53:03.502Z,12.20
2019-05-26T05:55:34.198Z,12.30
2019-05-26T05:58:04.915Z,12.20
2019-05-26T06:00:36.268Z,12.20
2019-05-26T06:03:07.112Z,12.30
2019-05-26T06:05:37.751Z,12.40
2019-05-26T06:08:08.324Z,12.40
2019-05-26T06:10:38.654Z,12.40
2019-05-26T06:13:09.189Z,12.50
2019-05-26T06:15:40.578Z,12.50
2019-05-26T06:18:10.977Z,12.60
2019-05-26T06:20:41.498Z,12.60
2019-05-26T06:23:11.612Z,12.70
2019-05-26T06:25:42.039Z,12.80
2019-05-26T06:28:12.197Z,12.80
2019-05-26T06:30:42.483Z,12.80
2019-05-26T06:33:12.708Z,13.00
2019-05-26T06:35:42.819Z,13.00
2019-05-26T06:38:13.241Z,13.00
2019-05-26T06:40:43.459Z,13.20
2019-05-26T06:43:13.758Z,13.20
2019-05-26T06:45:44.115Z,13.30
2019-05-26T06:48:14.550Z,13.30
2019-05-26T06:50:44.936Z,13.30
2019-05-26T06:53:15.122Z,13.30
2019-05-26T06:55:45.404Z,13.30
2019-05-26T06:58:15.864Z,13.40
2019-05-26T07:00:46.233Z,13.50
2019-05-26T07:03:16.566Z,13.50
2019-05-26T07:05:46.689Z,13.70
2019-05-26T07:08:16.851Z,13.80
2019-05-26T07:10:46.907Z,14.00
2019-05-26T07:13:17.492Z,14.10
2019-05-26T07:15:48.010Z,14.10
2019-05-26T07:18:18.167Z,14.10
2019-05-26T07:20:48.435Z,14.30
2019-05-26T07:23:19.551Z,14.30
2019-05-26T07:25:51.269Z,14.20
2019-05-26T07:28:21.404Z,14.40
2019-05-26T07:30:51.728Z,14.50
2019-05-26T07:33:22.315Z,14.50
2019-05-26T07:35:53.075Z,14.50
2019-05-26T07:38:23.379Z,14.60
2019-05-26T07:40:53.735Z,14.60
2019-05-26T07:43:27.882Z,14.70
2019-05-26T07:45:56.755Z,14.80
2019-05-26T07:48:27.352Z,14.90
2019-05-26T07:50:57.566Z,14.90
2019-05-26T07:53:28.136Z,14.70
2019-05-26T07:55:58.242Z,14.70
2019-05-26T07:58:28.235Z,14.70
2019-05-26T08:00:58.256Z,14.80
2019-05-26T08:03:28.185Z,15.00
2019-05-26T08:06:00.976Z,14.90
2019-05-26T08:08:31.364Z,15.00
2019-05-26T08:11:02.082Z,14.90
2019-05-26T08:13:32.478Z,15.00
2019-05-26T08:16:03.258Z,14.90
2019-05-26T08:18:33.721Z,14.80
2019-05-26T08:21:04.047Z,14.70
2019-05-26T08:23:34.304Z,14.70
2019-05-26T08:26:04.905Z,14.70
2019-05-26T08:28:35.223Z,14.80
2019-05-26T08:31:05.634Z,14.80
2019-05-26T08:33:35.878Z,14.80
2019-05-26T08:36:06.198Z,14.80
2019-05-26T08:38:36.272Z,14.70
2019-05-26T08:41:06.538Z,14.70
2019-05-26T08:43:36.792Z,14.80
2019-05-26T08:46:07.194Z,14.80
2019-05-26T08:48:37.266Z,14.70
2019-05-26T08:51:07.627Z,14.70
2019-05-26T08:53:37.834Z,14.70
2019-05-26T08:56:08.215Z,14.80
2019-05-26T08:58:38.822Z,14.80
2019-05-26T09:01:09.562Z,14.70
2019-05-26T09:03:39.941Z,14.80
2019-05-26T09:06:10.199Z,14.60
2019-05-26T09:08:40.980Z,14.70
2019-05-26T09:11:11.279Z,14.70
2019-05-26T09:13:41.838Z,14.60
2019-05-26T09:16:12.263Z,14.50
2019-05-26T09:18:42.930Z,14.50
2019-05-26T09:21:13.388Z,14.30
2019-05-26T09:23:43.849Z,14.20
2019-05-26T09:26:14.122Z,14.20
2019-05-26T09:28:44.377Z,14.20
2019-05-26T09:31:14.786Z,14.30
2019-05-26T09:33:45.223Z,14.30
2019-05-26T09:36:15.538Z,14.40
2019-05-26T09:38:45.758Z,14.40
2019-05-26T09:41:15.877Z,14.40
2019-05-26T09:43:45.886Z,14.40
2019-05-26T09:46:16.096Z,14.40
2019-05-26T09:48:46.338Z,14.40
2019-05-26T09:51:16.625Z,14.40
2019-05-26T09:54:00.830Z,14.30
2019-05-26T09:56:19.174Z,14.30
2019-05-26T09:58:49.505Z,14.30
2019-05-26T10:01:20.102Z,14.20
2019-05-26T10:03:50.452Z,14.30
2019-05-26T10:06:21.285Z,14.30
2019-05-26T10:08:53.224Z,14.30
2019-05-26T10:11:23.779Z,14.30
2019-05-26T10:13:54.449Z,14.40
2019-05-26T10:16:24.937Z,14.40
2019-05-26T10:18:55.456Z,14.50
2019-05-26T10:21:25.778Z,14.50
2019-05-26T10:23:56.315Z,14.50
2019-05-26T10:26:26.964Z,14.40
2019-05-26T10:29:00.430Z,14.50
2019-05-26T10:31:29.488Z,14.50
2019-05-26T10:33:59.757Z,14.50
2019-05-26T10:36:30.394Z,14.60
2019-05-26T10:39:00.709Z,14.60
2019-05-26T10:41:30.856Z,14.60
2019-05-26T10:44:02.318Z,14.60
2019-05-26T10:46:32.520Z,14.60
2019-05-26T10:49:02.795Z,14.70
2019-05-26T10:51:33.352Z,14.60
2019-05-26T10:54:03.353Z,14.70
2019-05-26T10:56:33.627Z,14.80
2019-05-26T10:59:03.820Z,14.70
2019-05-26T11:01:34.069Z,14.70
2019-05-26T11:04:04.635Z,14.70
2019-05-26T11:06:34.903Z,14.70
2019-05-26T11:09:07.386Z,14.60
2019-05-26T11:11:37.735Z,14.70
2019-05-26T11:14:08.018Z,14.70
2019-05-26T11:16:38.374Z,14.80
2019-05-26T11:19:08.711Z,14.80
2019-05-26T11:21:38.992Z,14.90
2019-05-26T11:24:09.248Z,14.80
2019-05-26T11:26:39.669Z,14.80
2019-05-26T11:29:09.760Z,14.80
2019-05-26T11:31:40.388Z,14.70
2019-05-26T11:34:10.940Z,14.90
2019-05-26T11:36:41.123Z,14.90
2019-05-26T11:39:11.275Z,14.90
2019-05-26T11:41:42.419Z,15.00
2019-05-26T11:44:17.898Z,15.10
2019-05-26T11:46:45.561Z,15.10
2019-05-26T11:49:16.377Z,15.10
2019-05-26T11:51:46.827Z,15.00
2019-05-26T11:54:17.129Z,15.00
2019-05-26T11:56:48.751Z,15.10
2019-05-26T11:59:19.217Z,15.20
2019-05-26T12:01:49.448Z,15.10
2019-05-26T12:04:19.748Z,15.10
2019-05-26T12:06:50.085Z,15.10
2019-05-26T12:09:20.272Z,15.20
2019-05-26T12:11:50.649Z,15.20
2019-05-26T12:14:34.505Z,15.20
2019-05-26T12:16:54.344Z,15.20
2019-05-26T12:19:24.796Z,15.20
2019-05-26T12:21:54.990Z,15.30
2019-05-26T12:24:25.225Z,15.50
2019-05-26T12:26:55.482Z,15.50
2019-05-26T12:29:25.823Z,15.50
2019-05-26T12:31:56.032Z,15.50
2019-05-26T12:34:26.110Z,15.50
2019-05-26T12:36:56.095Z,15.50
2019-05-26T12:39:26.449Z,15.50
2019-05-26T12:41:56.604Z,15.60
2019-05-26T12:44:26.695Z,15.70
2019-05-26T12:46:57.121Z,15.70
2019-05-26T12:49:28.052Z,15.60
2019-05-26T12:51:58.506Z,15.60
2019-05-26T12:54:28.610Z,15.60
2019-05-26T12:56:58.718Z,15.60
2019-05-26T12:59:29.070Z,15.50
2019-05-26T13:01:59.190Z,15.50
2019-05-26T13:04:29.489Z,15.50
2019-05-26T13:06:59.826Z,15.50
2019-05-26T13:09:30.244Z,15.50
2019-05-26T13:12:00.434Z,15.50
2019-05-26T13:14:30.621Z,15.60
2019-05-26T13:17:01.722Z,15.70
2019-05-26T13:19:32.497Z,15.70
2019-05-26T13:22:03.019Z,15.60
2019-05-26T13:24:33.375Z,15.50
2019-05-26T13:27:03.821Z,15.50
2019-05-26T13:29:34.091Z,15.60
2019-05-26T13:32:04.619Z,15.50
2019-05-26T13:34:35.965Z,15.50
2019-05-26T13:37:06.711Z,15.50
2019-05-26T13:39:37.108Z,15.50
2019-05-26T13:42:07.647Z,15.60
2019-05-26T13:44:38.133Z,15.70
2019-05-26T13:47:08.527Z,15.70
2019-05-26T13:49:38.752Z,15.60
2019-05-26T13:52:09.395Z,15.60
2019-05-26T13:54:39.747Z,15.60
2019-05-26T13:57:10.542Z,15.60
2019-05-26T13:59:40.650Z,15.60
2019-05-26T14:02:10.766Z,15.50
2019-05-26T14:04:41.066Z,15.50
2019-05-26T14:07:11.403Z,15.50
2019-05-26T14:09:41.768Z,15.50
2019-05-26T14:12:11.949Z,15.50
2019-05-26T14:14:42.137Z,15.50
2019-05-26T14:17:13.472Z,15.50
2019-05-26T14:19:46.328Z,15.50
2019-05-26T14:22:16.650Z,15.50
2019-05-26T14:24:53.741Z,15.40
2019-05-26T14:27:18.815Z,15.50
2019-05-26T14:29:49.457Z,15.50
2019-05-26T14:32:19.780Z,15.50
2019-05-26T14:34:49.894Z,15.60
2019-05-26T14:37:20.328Z,15.50
2019-05-26T14:39:50.571Z,15.50
2019-05-26T14:42:21.233Z,15.50
2019-05-26T14:44:51.838Z,15.50
2019-05-26T14:47:23.687Z,15.50
2019-05-26T14:49:54.301Z,15.50
2019-05-26T14:52:25.062Z,15.50
2019-05-26T14:54:58.861Z,15.50
2019-05-26T14:57:31.021Z,15.50
2019-05-26T15:00:00.785Z,15.40
2019-05-26T15:02:30.813Z,15.50
2019-05-26T15:05:01.516Z,15.50
2019-05-26T15:07:31.963Z,15.50
2019-05-26T15:10:02.846Z,15.70
2019-05-26T15:12:33.824Z,15.60
2019-05-26T15:15:04.882Z,15.70
2019-05-26T15:17:35.262Z,15.80
2019-05-26T15:20:08.539Z,15.90
2019-05-26T15:22:38.889Z,16.00
2019-05-26T15:25:09.933Z,16.00
2019-05-26T15:27:40.419Z,16.00
2019-05-26T15:30:12.223Z,15.90
2019-05-26T15:32:42.541Z,15.90
2019-05-26T15:35:12.877Z,15.80
2019-05-26T15:37:43.193Z,15.80
2019-05-26T15:40:13.614Z,15.70
2019-05-26T15:42:43.768Z,15.70
2019-05-26T15:45:14.121Z,15.80
2019-05-26T15:47:44.369Z,15.80
2019-05-26T15:50:14.798Z,15.80
2019-05-26T15:52:45.133Z,15.70
2019-05-26T15:55:15.997Z,15.60
2019-05-26T15:57:48.175Z,15.70
2019-05-26T16:00:19.103Z,15.80
2019-05-26T16:02:49.505Z,15.80
2019-05-26T16:05:19.726Z,15.70
2019-05-26T16:07:50.059Z,15.80
2019-05-26T16:10:20.494Z,15.90
2019-05-26T16:12:50.798Z,15.90
2019-05-26T16:15:20.986Z,15.90
2019-05-26T16:17:51.857Z,15.80
2019-05-26T16:20:22.309Z,15.80
2019-05-26T16:22:52.706Z,15.80
2019-05-26T16:25:23.039Z,15.80
2019-05-26T16:27:53.460Z,15.70
2019-05-26T16:30:24.016Z,15.70
2019-05-26T16:32:54.180Z,15.70
2019-05-26T16:35:24.527Z,15.60
2019-05-26T16:37:54.747Z,15.60
2019-05-26T16:40:25.753Z,15.60
2019-05-26T16:42:56.085Z,15.60
2019-05-26T16:45:26.448Z,15.50
2019-05-26T16:47:56.960Z,15.60
2019-05-26T16:50:27.406Z,15.50
2019-05-26T16:52:58.765Z,15.50
2019-05-26T16:55:29.672Z,15.40
2019-05-26T16:58:00.129Z,15.30
2019-05-26T17:00:32.426Z,15.30
2019-05-26T17:03:03.947Z,15.30
2019-05-26T17:05:34.404Z,15.40
2019-05-26T17:08:04.496Z,15.50
2019-05-26T17:10:34.636Z,15.40
2019-05-26T17:13:04.692Z,15.40
2019-05-26T17:15:35.284Z,15.20
2019-05-26T17:18:05.611Z,15.10
2019-05-26T17:20:35.712Z,15.10
2019-05-26T17:23:08.096Z,15.20
2019-05-26T17:25:39.989Z,15.20
2019-05-26T17:28:10.182Z,15.20
2019-05-26T17:30:40.288Z,15.10
2019-05-26T17:33:10.796Z,15.00
2019-05-26T17:35:41.015Z,15.10
2019-05-26T17:38:11.349Z,15.10
2019-05-26T17:40:41.699Z,15.20
2019-05-26T17:43:12.161Z,15.10
2019-05-26T17:45:42.913Z,15.00
2019-05-26T17:48:13.175Z,15.00
2019-05-26T17:50:43.395Z,15.00
2019-05-26T17:53:13.863Z,15.00
2019-05-26T17:55:44.468Z,15.00
2019-05-26T17:58:14.596Z,14.90
2019-05-26T18:00:45.202Z,14.90
2019-05-26T18:03:15.387Z,14.90
2019-05-26T18:05:46.579Z,15.00
2019-05-26T18:08:17.033Z,15.10
2019-05-26T18:10:47.639Z,15.10
2019-05-26T18:13:18.123Z,15.10
2019-05-26T18:15:48.789Z,15.10
2019-05-26T18:18:19.022Z,15.20
2019-05-26T18:20:49.388Z,15.10
2019-05-26T18:23:19.880Z,15.20
2019-05-26T18:25:50.450Z,15.20
2019-05-26T18:28:21.138Z,15.20
2019-05-26T18:30:51.481Z,15.30
2019-05-26T18:33:21.867Z,15.20
2019-05-26T18:35:52.116Z,15.30
2019-05-26T18:38:22.307Z,15.20
2019-05-26T18:40:52.567Z,15.10
2019-05-26T18:43:22.687Z,15.20
2019-05-26T18:45:52.926Z,15.20
2019-05-26T18:48:22.915Z,15.20
2019-05-26T18:50:53.253Z,15.20
2019-05-26T18:53:23.229Z,15.20
2019-05-26T18:55:53.147Z,15.20
2019-05-26T18:58:23.445Z,15.20
2019-05-26T19:00:53.924Z,15.20
2019-05-26T19:03:24.367Z,15.20
2019-05-26T19:05:54.630Z,15.20
2019-05-26T19:08:24.948Z,15.30
2019-05-26T19:10:55.129Z,15.20
2019-05-26T19:13:25.281Z,15.20
2019-05-26T19:15:55.467Z,15.30
2019-05-26T19:18:25.513Z,15.30
2019-05-26T19:20:55.813Z,15.30
2019-05-26T19:23:26.144Z,15.30
2019-05-26T19:25:56.462Z,15.20
2019-05-26T19:28:26.640Z,15.40
2019-05-26T19:30:57.035Z,15.30
2019-05-26T19:33:30.007Z,15.30
2019-05-26T19:36:00.285Z,15.30
2019-05-26T19:38:30.982Z,15.30
2019-05-26T19:41:01.039Z,15.30
2019-05-26T19:43:31.150Z,15.30
2019-05-26T19:46:01.427Z,15.30
2019-05-26T19:48:36.573Z,15.30
2019-05-26T19:51:03.724Z,15.30
2019-05-26T19:53:34.233Z,15.30
2019-05-26T19:56:04.814Z,15.40
2019-05-26T19:58:35.108Z,15.30
2019-05-26T20:01:05.656Z,15.30
2019-05-26T20:03:36.106Z,15.40
2019-05-26T20:06:06.223Z,15.40
2019-05-26T20:08:36.518Z,15.40
2019-05-26T20:11:07.084Z,15.30
2019-05-26T20:13:40.867Z,15.40
2019-05-26T20:16:11.562Z,15.30
2019-05-26T20:18:41.778Z,15.40
2019-05-26T20:21:12.213Z,15.40
2019-05-26T20:23:42.545Z,15.40
2019-05-26T20:26:12.623Z,15.30
2019-05-26T20:28:42.787Z,15.20
2019-05-26T20:31:13.112Z,15.20
2019-05-26T20:33:43.243Z,15.20
2019-05-26T20:36:13.466Z,15.20
2019-05-26T20:38:43.719Z,15.20
2019-05-26T20:41:13.976Z,15.20
2019-05-26T20:43:44.266Z,15.20
2019-05-26T20:46:15.416Z,15.30
2019-05-26T20:48:45.611Z,15.20
2019-05-26T20:51:15.706Z,15.20
2019-05-26T20:53:45.725Z,15.20
2019-05-26T20:56:16.173Z,15.30
2019-05-26T20:58:46.549Z,15.20
2019-05-26T21:01:16.928Z,15.20
2019-05-26T21:03:47.024Z,15.20
2019-05-26T21:06:17.043Z,15.20
2019-05-26T21:08:47.175Z,15.30
2019-05-26T21:11:17.630Z,15.20
2019-05-26T21:13:47.895Z,15.20
2019-05-26T21:16:18.372Z,15.20
2019-05-26T21:18:49.019Z,15.20
2019-05-26T21:21:19.116Z,15.20
2019-05-26T21:23:49.379Z,15.20
2019-05-26T21:26:19.602Z,15.10
2019-05-26T21:28:49.642Z,15.10
2019-05-26T21:31:21.008Z,15.10
2019-05-26T21:33:51.428Z,15.00
2019-05-26T21:36:21.628Z,15.00
2019-05-26T21:38:52.570Z,15.00
2019-05-26T21:41:23.442Z,15.00
2019-05-26T21:43:53.979Z,15.00
2019-05-26T21:46:24.386Z,15.00
2019-05-26T21:48:54.849Z,15.00
2019-05-26T21:51:25.165Z,15.00
2019-05-26T21:53:55.674Z,15.00
2019-05-26T21:56:25.691Z,15.10
2019-05-26T21:58:56.105Z,15.10
2019-05-26T22:01:26.329Z,15.10
2019-05-26T22:03:56.473Z,15.00
2019-05-26T22:06:26.688Z,15.10
2019-05-26T22:08:57.150Z,15.10
2019-05-26T22:11:27.548Z,15.00
2019-05-26T22:13:57.931Z,15.00
2019-05-26T22:16:28.386Z,15.00
2019-05-26T22:19:00.206Z,15.00
2019-05-26T22:21:30.575Z,14.90
2019-05-26T22:24:02.163Z,14.90
2019-05-26T22:26:32.447Z,15.00
2019-05-26T22:29:03.900Z,15.00
2019-05-26T22:31:34.245Z,14.90
2019-05-26T22:34:05.260Z,14.90
2019-05-26T22:36:36.130Z,15.00
2019-05-26T22:39:07.597Z,14.90
2019-05-26T22:41:38.214Z,14.80
2019-05-26T22:44:08.993Z,14.90
2019-05-26T22:46:39.304Z,14.80
2019-05-26T22:49:09.597Z,14.80
2019-05-26T22:51:39.877Z,14.80
2019-05-26T22:54:10.646Z,14.80
2019-05-26T22:56:41.076Z,14.70
2019-05-26T22:59:11.386Z,14.70
2019-05-26T23:01:41.962Z,14.70
2019-05-26T23:04:12.121Z,14.70
2019-05-26T23:06:43.018Z,14.70
2019-05-26T23:09:13.720Z,14.70
2019-05-26T23:11:44.153Z,14.70
2019-05-26T23:14:14.776Z,14.70
2019-05-26T23:16:45.213Z,14.70
2019-05-26T23:19:19.251Z,14.60
2019-05-26T23:21:47.485Z,14.70
2019-05-26T23:24:17.817Z,14.70
2019-05-26T23:26:48.079Z,14.60
2019-05-26T23:29:18.252Z,14.60
2019-05-26T23:31:48.701Z,14.70
2019-05-26T23:34:19.128Z,14.60
2019-05-26T23:36:49.352Z,14.70
2019-05-26T23:39:19.567Z,14.60
2019-05-26T23:41:49.984Z,14.60
2019-05-26T23:44:20.103Z,14.60
2019-05-26T23:46:50.229Z,14.50
2019-05-26T23:49:22.181Z,14.50
2019-05-26T23:51:52.523Z,14.50
2019-05-26T23:54:22.831Z,14.50
2019-05-26T23:56:53.129Z,14.50
2019-05-26T23:59:23.412Z,14.50
